Time;durP1;ratioP1;P1;durP2;ratioP2;P2;SDS_P1;SDS_P2;PMS_P1;PMS_P2;Temp;Humidity;BMP_temperature;BMP_pressure;BME280_temperature;BME280_humidity;BME280_pressure;Samples;Min_cycle;Max_cycle;Signal;HPM_P1;HPM_P2
2024/01/11 00:00:43;;;;;;;9.27;6.80;;;;;;;;;;5057271;28;40364;-68
2024/01/11 00:03:11;;;;;;;9.85;6.93;;;;;;;;;;5053146;28;42185;-68
2024/01/11 00:05:39;;;;;;;10.52;6.65;;;;;;;;;;5056037;28;42751;-67
2024/01/11 00:08:09;;;;;;;12.80;7.60;;;;;;;;;;5058465;28;40423;-67
2024/01/11 00:10:39;;;;;;;10.30;6.82;;;;;;;;;;5063282;28;41203;-67
2024/01/11 00:13:06;;;;;;;12.65;7.22;;;;;;;;;;5060295;28;39899;-67
2024/01/11 00:15:33;;;;;;;11.68;6.97;;;;;;;;;;5058250;28;41566;-67
2024/01/11 00:18:02;;;;;;;9.82;6.07;;;;;;;;;;5058756;28;42236;-66
2024/01/11 00:20:30;;;;;;;11.23;6.68;;;;;;;;;;5062236;28;39609;-66
2024/01/11 00:22:58;;;;;;;11.00;6.85;;;;;;;;;;5052776;28;42024;-67
2024/01/11 00:25:26;;;;;;;9.73;6.40;;;;;;;;;;5062014;28;41803;-67
2024/01/11 00:27:55;;;;;;;9.30;6.68;;;;;;;;;;5065044;28;40457;-67
2024/01/11 00:30:23;;;;;;;10.20;6.90;;;;;;;;;;5065401;28;41724;-67
2024/01/11 00:32:54;;;;;;;9.48;6.32;;;;;;;;;;5065887;28;34559;-67
2024/01/11 00:35:22;;;;;;;11.32;7.05;;;;;;;;;;5065526;28;41852;-67
2024/01/11 00:37:50;;;;;;;11.98;7.22;;;;;;;;;;5059740;28;42514;-67
2024/01/11 00:40:18;;;;;;;10.35;7.03;;;;;;;;;;5065830;28;39759;-67
2024/01/11 00:42:46;;;;;;;9.07;6.90;;;;;;;;;;5063826;28;42511;-67
2024/01/11 00:45:15;;;;;;;10.07;7.13;;;;;;;;;;5062603;28;43493;-67
2024/01/11 00:47:43;;;;;;;10.98;7.38;;;;;;;;;;5064324;28;42122;-67
2024/01/11 00:50:11;;;;;;;9.13;6.47;;;;;;;;;;5063547;28;42650;-66
2024/01/11 00:52:39;;;;;;;10.18;7.18;;;;;;;;;;5062658;28;42255;-66
2024/01/11 00:55:07;;;;;;;9.43;6.25;;;;;;;;;;5052008;28;41030;-66
2024/01/11 00:57:35;;;;;;;9.73;6.85;;;;;;;;;;5058583;28;43142;-66
2024/01/11 01:00:04;;;;;;;10.95;7.13;;;;;;;;;;5062611;28;38862;-66
2024/01/11 01:02:33;;;;;;;11.85;6.75;;;;;;;;;;5063413;28;41731;-66
2024/01/11 01:05:01;;;;;;;8.77;6.32;;;;;;;;;;5063418;28;42602;-66
2024/01/11 01:07:29;;;;;;;10.00;7.28;;;;;;;;;;5063826;28;41232;-66
2024/01/11 01:09:57;;;;;;;9.35;7.07;;;;;;;;;;5062857;28;41688;-67
2024/01/11 01:12:25;;;;;;;9.55;6.90;;;;;;;;;;5063480;28;41650;-67
2024/01/11 01:14:53;;;;;;;8.55;6.53;;;;;;;;;;5063410;28;41445;-66
2024/01/11 01:17:21;;;;;;;8.68;6.38;;;;;;;;;;5063549;28;40940;-66
2024/01/11 01:19:50;;;;;;;9.43;6.47;;;;;;;;;;5061421;28;39044;-67
2024/01/11 01:22:18;;;;;;;9.90;6.30;;;;;;;;;;5063592;28;42608;-67
2024/01/11 01:24:46;;;;;;;8.98;6.72;;;;;;;;;;5063070;28;41803;-66
2024/01/11 01:27:14;;;;;;;11.05;7.13;;;;;;;;;;5060712;28;40344;-66
2024/01/11 01:29:42;;;;;;;9.13;6.63;;;;;;;;;;5056757;28;41676;-66
2024/01/11 01:32:13;;;;;;;9.18;6.68;;;;;;;;;;5063696;28;43201;-66
2024/01/11 01:34:41;;;;;;;8.98;6.20;;;;;;;;;;5061574;28;40442;-66
2024/01/11 01:37:12;;;;;;;10.75;6.90;;;;;;;;;;5064422;28;41762;-66
2024/01/11 01:39:40;;;;;;;8.68;6.28;;;;;;;;;;5063218;28;39973;-66
2024/01/11 01:42:08;;;;;;;10.70;6.53;;;;;;;;;;5064289;28;40860;-66
2024/01/11 01:44:36;;;;;;;10.10;6.90;;;;;;;;;;5051197;28;42638;-66
2024/01/11 01:47:04;;;;;;;9.90;7.05;;;;;;;;;;5062741;28;41694;-66
2024/01/11 01:49:32;;;;;;;8.18;6.22;;;;;;;;;;5064038;28;41855;-66
2024/01/11 01:52:01;;;;;;;10.70;7.47;;;;;;;;;;5063252;28;42291;-66
2024/01/11 01:54:30;;;;;;;9.18;6.50;;;;;;;;;;5062940;28;40785;-66
2024/01/11 01:56:58;;;;;;;9.65;7.03;;;;;;;;;;5061256;28;42089;-67
2024/01/11 01:59:26;;;;;;;9.50;6.43;;;;;;;;;;5062500;28;41774;-67
2024/01/11 02:01:54;;;;;;;9.90;6.40;;;;;;;;;;5062577;28;42240;-67
2024/01/11 02:04:23;;;;;;;10.07;6.47;;;;;;;;;;5061093;28;41833;-67
2024/01/11 02:06:51;;;;;;;9.32;6.93;;;;;;;;;;5054378;28;40535;-67
2024/01/11 02:09:19;;;;;;;9.70;6.65;;;;;;;;;;5067762;28;41208;-67
2024/01/11 02:11:48;;;;;;;9.35;6.50;;;;;;;;;;5067205;28;41422;-67
2024/01/11 02:14:16;;;;;;;10.48;6.95;;;;;;;;;;5067718;28;40894;-67
2024/01/11 02:16:44;;;;;;;10.10;6.40;;;;;;;;;;5066205;28;41882;-67
2024/01/11 02:19:13;;;;;;;8.38;5.90;;;;;;;;;;5068324;28;41908;-67
2024/01/11 02:21:41;;;;;;;9.88;6.28;;;;;;;;;;5066616;28;40550;-66
2024/01/11 02:24:11;;;;;;;11.38;6.80;;;;;;;;;;5065942;28;41605;-67
2024/01/11 02:26:38;;;;;;;11.20;6.53;;;;;;;;;;5060462;28;42320;-66
2024/01/11 02:29:06;;;;;;;9.82;6.53;;;;;;;;;;5066603;28;39993;-67
2024/01/11 02:31:34;;;;;;;8.77;6.20;;;;;;;;;;5062208;28;42394;-66
2024/01/11 02:34:04;;;;;;;8.83;6.53;;;;;;;;;;5056318;28;41170;-67
2024/01/11 02:36:32;;;;;;;9.52;6.28;;;;;;;;;;5064392;28;41319;-67
2024/01/11 02:39:00;;;;;;;7.78;6.00;;;;;;;;;;5066892;28;43073;-67
2024/01/11 02:41:29;;;;;;;8.77;6.35;;;;;;;;;;5068351;28;40061;-67
2024/01/11 02:43:57;;;;;;;11.15;6.55;;;;;;;;;;5057956;28;43039;-66
2024/01/11 02:46:25;;;;;;;8.00;6.13;;;;;;;;;;5065182;28;40223;-66
2024/01/11 02:48:53;;;;;;;9.23;6.72;;;;;;;;;;5057419;28;42148;-66
2024/01/11 02:51:21;;;;;;;9.75;6.35;;;;;;;;;;5065459;28;43099;-66
2024/01/11 02:53:49;;;;;;;9.70;6.40;;;;;;;;;;5067228;28;40101;-66
2024/01/11 02:56:17;;;;;;;9.55;6.38;;;;;;;;;;5065347;28;41831;-66
2024/01/11 02:58:47;;;;;;;8.77;6.15;;;;;;;;;;5063452;28;20307;-66
2024/01/11 03:01:15;;;;;;;8.37;6.03;;;;;;;;;;5065072;28;40918;-66
2024/01/11 03:03:43;;;;;;;9.48;6.47;;;;;;;;;;5064638;28;40790;-66
2024/01/11 03:06:11;;;;;;;9.93;5.93;;;;;;;;;;5065813;28;39808;-66
2024/01/11 03:08:39;;;;;;;8.60;6.35;;;;;;;;;;5065265;28;42634;-66
2024/01/11 03:11:07;;;;;;;10.55;6.95;;;;;;;;;;5065425;28;41925;-66
2024/01/11 03:13:35;;;;;;;8.60;6.40;;;;;;;;;;5065763;28;40384;-66
2024/01/11 03:16:05;;;;;;;9.65;6.40;;;;;;;;;;5067013;28;41947;-66
2024/01/11 03:18:33;;;;;;;7.43;5.55;;;;;;;;;;5065400;28;42026;-66
2024/01/11 03:21:01;;;;;;;7.22;5.60;;;;;;;;;;5052746;28;39924;-66
2024/01/11 03:23:29;;;;;;;8.85;6.03;;;;;;;;;;5065158;28;42071;-66
2024/01/11 03:25:57;;;;;;;9.30;5.93;;;;;;;;;;5066090;28;43130;-66
2024/01/11 03:28:25;;;;;;;10.20;6.53;;;;;;;;;;5063044;28;41624;-66
2024/01/11 03:30:53;;;;;;;8.63;6.23;;;;;;;;;;5066428;28;41615;-66
2024/01/11 03:33:22;;;;;;;9.23;6.30;;;;;;;;;;5065827;28;40132;-67
2024/01/11 03:35:50;;;;;;;9.05;6.03;;;;;;;;;;5063475;28;41481;-66
2024/01/11 03:38:18;;;;;;;8.50;5.90;;;;;;;;;;5063950;28;41803;-66
2024/01/11 03:40:46;;;;;;;8.43;6.00;;;;;;;;;;5065640;28;41056;-66
2024/01/11 03:43:17;;;;;;;9.65;6.25;;;;;;;;;;5066690;28;42573;-66
2024/01/11 03:45:45;;;;;;;10.02;6.22;;;;;;;;;;5054949;28;41943;-67
2024/01/11 03:48:13;;;;;;;10.02;6.03;;;;;;;;;;5066416;28;40415;-66
2024/01/11 03:50:43;;;;;;;10.00;6.25;;;;;;;;;;5064154;28;43122;-66
2024/01/11 03:53:11;;;;;;;10.20;6.53;;;;;;;;;;5057544;28;40524;-67
2024/01/11 03:55:39;;;;;;;8.00;6.47;;;;;;;;;;5065196;28;42674;-67
2024/01/11 03:58:06;;;;;;;8.63;6.25;;;;;;;;;;5064261;28;42326;-66
2024/01/11 04:00:34;;;;;;;7.82;6.03;;;;;;;;;;5063997;28;41032;-66
2024/01/11 04:03:03;;;;;;;9.67;5.90;;;;;;;;;;5063674;28;41729;-67
2024/01/11 04:05:30;;;;;;;8.30;6.32;;;;;;;;;;5064840;28;42099;-66
2024/01/11 04:08:00;;;;;;;7.77;5.80;;;;;;;;;;5064299;28;41002;-66
2024/01/11 04:10:28;;;;;;;9.05;6.40;;;;;;;;;;5064335;28;40996;-66
2024/01/11 04:12:56;;;;;;;7.33;5.77;;;;;;;;;;5065378;28;40561;-66
2024/01/11 04:15:24;;;;;;;8.20;6.10;;;;;;;;;;5065369;28;42402;-66
2024/01/11 04:17:52;;;;;;;8.90;6.33;;;;;;;;;;5062141;28;41824;-66
2024/01/11 04:20:20;;;;;;;9.00;6.07;;;;;;;;;;5062200;28;40164;-66
2024/01/11 04:22:48;;;;;;;8.68;6.00;;;;;;;;;;5057610;28;41525;-67
2024/01/11 04:25:17;;;;;;;8.02;5.95;;;;;;;;;;5052901;28;41443;-66
2024/01/11 04:27:45;;;;;;;8.43;6.43;;;;;;;;;;5057997;28;40359;-66
2024/01/11 04:30:16;;;;;;;8.03;6.03;;;;;;;;;;5052275;28;41896;-66
2024/01/11 04:32:44;;;;;;;8.40;5.88;;;;;;;;;;5060196;28;42046;-66
2024/01/11 04:35:12;;;;;;;8.75;5.95;;;;;;;;;;5061699;28;41675;-67
2024/01/11 04:37:40;;;;;;;7.93;5.90;;;;;;;;;;5063698;28;42642;-66
2024/01/11 04:40:09;;;;;;;9.97;6.87;;;;;;;;;;5045298;28;40161;-66
2024/01/11 04:42:38;;;;;;;9.02;6.15;;;;;;;;;;5063744;28;41843;-66
2024/01/11 04:45:06;;;;;;;7.30;5.70;;;;;;;;;;5058428;28;41983;-66
2024/01/11 04:47:34;;;;;;;7.70;5.50;;;;;;;;;;5055384;28;40312;-66
2024/01/11 04:50:02;;;;;;;9.23;6.27;;;;;;;;;;5064841;28;41040;-66
2024/01/11 04:52:30;;;;;;;7.37;5.73;;;;;;;;;;5064689;28;42351;-66
2024/01/11 04:54:58;;;;;;;9.47;6.20;;;;;;;;;;5062565;28;41454;-69
2024/01/11 04:57:26;;;;;;;10.10;6.23;;;;;;;;;;5063889;28;42462;-66
2024/01/11 04:59:55;;;;;;;9.00;6.47;;;;;;;;;;5064233;28;40231;-66
2024/01/11 05:02:26;;;;;;;7.53;5.43;;;;;;;;;;5064402;28;41568;-66
2024/01/11 05:04:54;;;;;;;8.75;5.90;;;;;;;;;;5062798;28;43195;-66
2024/01/11 05:07:22;;;;;;;8.63;5.90;;;;;;;;;;5064938;28;40109;-66
2024/01/11 05:09:50;;;;;;;7.93;6.00;;;;;;;;;;5063337;28;42302;-66
2024/01/11 05:12:18;;;;;;;7.50;5.97;;;;;;;;;;5063656;28;42704;-66
2024/01/11 05:14:46;;;;;;;8.30;6.10;;;;;;;;;;5062270;28;41053;-66
2024/01/11 05:17:15;;;;;;;9.45;6.60;;;;;;;;;;5062344;28;43067;-66
2024/01/11 05:19:43;;;;;;;9.30;6.07;;;;;;;;;;5051980;28;41838;-66
2024/01/11 05:22:11;;;;;;;7.70;5.85;;;;;;;;;;5064568;28;42610;-66
2024/01/11 05:24:39;;;;;;;8.18;5.70;;;;;;;;;;5064259;28;42240;-66
2024/01/11 05:27:07;;;;;;;9.50;6.37;;;;;;;;;;5060491;28;40239;-66
2024/01/11 05:29:35;;;;;;;6.90;5.17;;;;;;;;;;5061137;28;41485;-68
2024/01/11 05:32:03;;;;;;;9.05;6.43;;;;;;;;;;5064293;28;42361;-67
2024/01/11 05:34:33;;;;;;;8.33;5.80;;;;;;;;;;5062014;28;40133;-66
2024/01/11 05:37:01;;;;;;;8.80;5.95;;;;;;;;;;5064866;28;42391;-66
2024/01/11 05:39:29;;;;;;;8.75;6.07;;;;;;;;;;5062977;28;40079;-67
2024/01/11 05:41:57;;;;;;;9.88;5.95;;;;;;;;;;5065210;28;41483;-67
2024/01/11 05:44:25;;;;;;;8.25;5.93;;;;;;;;;;5068970;28;42029;-67
2024/01/11 05:46:53;;;;;;;8.25;5.45;;;;;;;;;;5067869;28;39960;-67
2024/01/11 05:49:21;;;;;;;9.00;5.95;;;;;;;;;;5066597;28;42052;-67
2024/01/11 05:51:50;;;;;;;8.27;6.27;;;;;;;;;;5062630;28;41480;-67
2024/01/11 05:54:18;;;;;;;8.63;6.15;;;;;;;;;;5059693;28;40411;-67
2024/01/11 05:56:46;;;;;;;9.60;6.30;;;;;;;;;;5060845;28;41743;-67
2024/01/11 05:59:14;;;;;;;8.57;6.33;;;;;;;;;;5067229;28;42596;-67
2024/01/11 06:01:43;;;;;;;9.13;6.00;;;;;;;;;;5065721;28;42711;-67
2024/01/11 06:04:11;;;;;;;7.53;5.63;;;;;;;;;;5054909;28;41763;-66
2024/01/11 06:06:38;;;;;;;8.67;6.13;;;;;;;;;;5059572;28;41149;-66
2024/01/11 06:09:08;;;;;;;8.90;6.07;;;;;;;;;;5053716;28;41316;-66
2024/01/11 06:11:36;;;;;;;8.83;5.70;;;;;;;;;;5051169;28;43094;-66
2024/01/11 06:14:04;;;;;;;8.23;5.93;;;;;;;;;;5050307;28;40010;-66
2024/01/11 06:16:32;;;;;;;7.97;5.97;;;;;;;;;;5060774;28;41418;-66
2024/01/11 06:19:00;;;;;;;8.27;6.00;;;;;;;;;;5065006;28;41571;-66
2024/01/11 06:21:28;;;;;;;8.15;6.30;;;;;;;;;;5060982;28;40766;-66
2024/01/11 06:23:56;;;;;;;8.80;6.30;;;;;;;;;;5057720;28;42714;-66
2024/01/11 06:26:25;;;;;;;8.50;6.80;;;;;;;;;;5064387;28;39926;-68
2024/01/11 06:28:53;;;;;;;9.10;6.23;;;;;;;;;;5057812;28;41579;-68
2024/01/11 06:31:21;;;;;;;8.23;6.53;;;;;;;;;;5049106;28;42059;-67
2024/01/11 06:33:49;;;;;;;9.57;6.47;;;;;;;;;;5053248;28;41243;-67
2024/01/11 06:36:18;;;;;;;8.63;6.33;;;;;;;;;;5057081;28;42417;-66
2024/01/11 06:38:46;;;;;;;8.13;6.27;;;;;;;;;;5061869;28;42727;-67
2024/01/11 06:41:14;;;;;;;9.23;6.60;;;;;;;;;;5066236;28;39659;-67
2024/01/11 06:43:44;;;;;;;8.17;6.10;;;;;;;;;;5068033;28;42493;-67
2024/01/11 06:46:12;;;;;;;8.40;5.87;;;;;;;;;;5066989;28;40044;-67
2024/01/11 06:48:40;;;;;;;7.30;5.93;;;;;;;;;;5066814;28;42493;-67
2024/01/11 06:51:08;;;;;;;9.03;6.43;;;;;;;;;;5066642;28;41799;-67
2024/01/11 06:53:37;;;;;;;9.03;6.67;;;;;;;;;;5067638;28;39628;-67
2024/01/11 06:56:13;;;;;;;9.50;6.60;;;;;;;;;;5066790;28;41616;-67
2024/01/11 06:58:41;;;;;;;8.63;6.33;;;;;;;;;;5066832;28;41470;-67
2024/01/11 07:01:10;;;;;;;8.80;6.67;;;;;;;;;;5066375;28;40293;-67
2024/01/11 07:03:38;;;;;;;9.60;6.37;;;;;;;;;;5060198;28;41756;-66
2024/01/11 07:06:07;;;;;;;8.97;6.23;;;;;;;;;;5065733;28;40152;-67
2024/01/11 07:08:35;;;;;;;7.57;5.50;;;;;;;;;;5066021;28;41361;-67
2024/01/11 07:11:03;;;;;;;8.10;6.30;;;;;;;;;;5065257;28;42093;-67
2024/01/11 07:13:32;;;;;;;9.00;6.30;;;;;;;;;;5063937;28;41991;-65
2024/01/11 07:16:00;;;;;;;7.40;5.77;;;;;;;;;;5063635;28;43331;-68
2024/01/11 07:18:30;;;;;;;9.40;6.70;;;;;;;;;;5064259;28;42082;-66
2024/01/11 07:20:58;;;;;;;8.77;6.17;;;;;;;;;;5063938;28;40073;-67
2024/01/11 07:23:26;;;;;;;8.90;6.23;;;;;;;;;;5063115;28;42117;-67
2024/01/11 07:25:54;;;;;;;8.83;6.00;;;;;;;;;;5051196;28;41954;-67
2024/01/11 07:28:25;;;;;;;10.40;6.50;;;;;;;;;;5053729;28;41121;-67
2024/01/11 07:30:53;;;;;;;9.57;6.30;;;;;;;;;;5062366;28;42762;-67
2024/01/11 07:33:21;;;;;;;8.97;5.93;;;;;;;;;;5065803;28;41420;-67
2024/01/11 07:35:51;;;;;;;9.90;6.33;;;;;;;;;;5058123;28;41275;-68
2024/01/11 07:38:19;;;;;;;9.13;6.53;;;;;;;;;;5062174;28;42202;-66
2024/01/11 07:40:47;;;;;;;8.73;6.67;;;;;;;;;;5058830;28;40353;-67
2024/01/11 07:43:15;;;;;;;9.10;6.33;;;;;;;;;;5057076;28;42178;-67
2024/01/11 07:45:46;;;;;;;7.60;5.90;;;;;;;;;;5056833;28;42022;-67
2024/01/11 07:48:14;;;;;;;9.10;6.70;;;;;;;;;;5064841;28;40514;-67
2024/01/11 07:50:42;;;;;;;7.70;5.77;;;;;;;;;;5061601;28;42272;-67
2024/01/11 07:53:12;;;;;;;9.10;6.57;;;;;;;;;;5063913;28;41005;-67
2024/01/11 07:55:40;;;;;;;7.70;5.80;;;;;;;;;;5061354;28;41781;-67
2024/01/11 07:58:08;;;;;;;9.00;6.97;;;;;;;;;;5064504;28;42468;-67
2024/01/11 08:00:36;;;;;;;8.40;6.27;;;;;;;;;;5055369;28;40787;-67
2024/01/11 08:03:04;;;;;;;7.30;6.23;;;;;;;;;;5062238;28;41118;-67
2024/01/11 08:05:32;;;;;;;8.60;6.13;;;;;;;;;;5063027;28;42391;-67
2024/01/11 08:08:03;;;;;;;8.17;6.47;;;;;;;;;;5062462;28;40708;-67
2024/01/11 08:10:32;;;;;;;7.50;6.10;;;;;;;;;;5052924;28;41485;-66
2024/01/11 08:13:00;;;;;;;9.37;6.50;;;;;;;;;;5058791;28;40468;-67
2024/01/11 08:15:29;;;;;;;9.43;6.63;;;;;;;;;;5056831;28;42137;-67
2024/01/11 08:17:57;;;;;;;9.47;7.07;;;;;;;;;;5063700;28;41574;-67
2024/01/11 08:20:25;;;;;;;7.50;6.07;;;;;;;;;;5053815;28;40333;-67
2024/01/11 08:22:53;;;;;;;10.87;7.00;;;;;;;;;;5061563;28;41142;-67
2024/01/11 08:25:21;;;;;;;9.23;6.67;;;;;;;;;;5065616;28;43772;-67
2024/01/11 08:27:51;;;;;;;8.47;6.17;;;;;;;;;;5057155;28;39782;-67
2024/01/11 08:30:19;;;;;;;9.13;6.37;;;;;;;;;;5051704;28;42577;-66
2024/01/11 08:32:47;;;;;;;8.93;6.50;;;;;;;;;;5052777;28;42998;-67
2024/01/11 08:35:16;;;;;;;9.37;6.07;;;;;;;;;;5049047;28;41890;-70
2024/01/11 08:37:44;;;;;;;16.10;6.97;;;;;;;;;;5058505;28;43716;-69
2024/01/11 08:40:12;;;;;;;15.30;6.80;;;;;;;;;;5059781;28;40302;-67
2024/01/11 08:42:41;;;;;;;11.13;7.03;;;;;;;;;;5064934;28;41734;-67
2024/01/11 08:45:17;;;;;;;10.03;7.60;;;;;;;;;;5065767;28;42211;-67
2024/01/11 08:47:45;;;;;;;13.80;7.90;;;;;;;;;;5065514;28;39829;-68
2024/01/11 08:50:14;;;;;;;10.03;7.83;;;;;;;;;;5064495;28;41143;-69
2024/01/11 08:52:42;;;;;;;13.00;9.83;;;;;;;;;;5064434;28;41776;-71
2024/01/11 08:55:12;;;;;;;13.80;9.57;;;;;;;;;;5064694;28;40619;-72
2024/01/11 08:57:40;;;;;;;13.57;9.27;;;;;;;;;;5062312;28;41700;-71
2024/01/11 09:00:08;;;;;;;13.07;9.88;;;;;;;;;;5063661;28;40356;-73
2024/01/11 09:02:38;;;;;;;12.97;8.83;;;;;;;;;;5053926;28;42454;-74
2024/01/11 09:05:07;;;;;;;12.30;8.80;;;;;;;;;;5055725;28;43080;-71
2024/01/11 09:07:37;;;;;;;15.50;9.30;;;;;;;;;;5056956;28;40055;-74
2024/01/11 09:10:05;;;;;;;12.70;9.38;;;;;;;;;;5046922;28;42063;-73
2024/01/11 09:12:33;;;;;;;14.03;9.67;;;;;;;;;;5060597;28;41882;-74
2024/01/11 09:15:01;;;;;;;12.23;9.68;;;;;;;;;;5052879;28;39915;-75
2024/01/11 09:17:29;;;;;;;14.40;10.68;;;;;;;;;;5062860;28;42053;-77
2024/01/11 09:19:59;;;;;;;14.80;9.63;;;;;;;;;;5057000;28;41461;-72
2024/01/11 09:22:27;;;;;;;13.25;10.05;;;;;;;;;;5062711;28;41586;-71
2024/01/11 09:24:55;;;;;;;14.07;9.33;;;;;;;;;;5065054;28;43041;-76
2024/01/11 09:27:23;;;;;;;13.98;9.52;;;;;;;;;;5057442;28;41697;-74
2024/01/11 09:29:51;;;;;;;15.52;9.98;;;;;;;;;;5059628;28;40067;-73
2024/01/11 09:32:23;;;;;;;14.27;10.05;;;;;;;;;;5064455;28;42034;-73
2024/01/11 09:34:51;;;;;;;12.48;10.25;;;;;;;;;;5070578;28;40885;-78
2024/01/11 09:37:21;;;;;;;14.88;10.95;;;;;;;;;;5068550;28;42583;-74
2024/01/11 09:39:48;;;;;;;18.58;13.02;;;;;;;;;;5063672;28;40642;-71
2024/01/11 09:42:16;;;;;;;15.77;11.48;;;;;;;;;;5063868;28;41677;-71
2024/01/11 09:44:44;;;;;;;13.05;9.63;;;;;;;;;;5059885;28;42127;-71
2024/01/11 09:47:13;;;;;;;12.93;9.98;;;;;;;;;;5061542;28;41404;-72
2024/01/11 09:49:43;;;;;;;14.20;10.18;;;;;;;;;;5061945;28;42449;-71
2024/01/11 09:52:14;;;;;;;9.90;7.22;;;;;;;;;;5064857;28;41811;-71
2024/01/11 09:54:44;;;;;;;11.88;8.35;;;;;;;;;;5065166;28;40602;-71
2024/01/11 09:57:13;;;;;;;12.27;9.23;;;;;;;;;;5063148;28;41680;-75
2024/01/11 09:59:41;;;;;;;10.48;7.63;;;;;;;;;;5055429;28;43195;-72
2024/01/11 10:02:09;;;;;;;12.38;9.45;;;;;;;;;;5058038;28;42285;-72
2024/01/11 10:04:37;;;;;;;14.30;9.02;;;;;;;;;;5064843;28;43194;-73
2024/01/11 10:07:05;;;;;;;11.98;7.53;;;;;;;;;;5065090;28;40430;-72
2024/01/11 10:09:33;;;;;;;9.45;7.10;;;;;;;;;;5064934;28;41461;-72
2024/01/11 10:12:03;;;;;;;12.90;8.02;;;;;;;;;;5064366;28;42014;-73
2024/01/11 10:14:31;;;;;;;12.73;7.70;;;;;;;;;;5066169;28;40400;-72
2024/01/11 10:17:00;;;;;;;12.27;7.78;;;;;;;;;;5055533;28;42102;-75
2024/01/11 10:19:28;;;;;;;11.25;7.15;;;;;;;;;;5059709;28;42080;-70
2024/01/11 10:21:56;;;;;;;15.27;7.57;;;;;;;;;;5058347;28;40930;-76
2024/01/11 10:24:26;;;;;;;11.15;7.00;;;;;;;;;;5065911;28;41992;-69
2024/01/11 10:26:56;;;;;;;10.80;7.85;;;;;;;;;;5054347;28;41061;-72
2024/01/11 10:29:25;;;;;;;12.32;7.95;;;;;;;;;;5059494;28;42693;-71
2024/01/11 10:31:53;;;;;;;9.55;7.00;;;;;;;;;;5063840;28;42139;-72
2024/01/11 10:34:21;;;;;;;12.95;7.10;;;;;;;;;;5067270;28;40015;-72
2024/01/11 10:36:49;;;;;;;11.30;8.85;;;;;;;;;;5067099;28;42768;-71
2024/01/11 10:39:17;;;;;;;10.77;7.72;;;;;;;;;;5065094;28;41433;-72
2024/01/11 10:41:46;;;;;;;12.75;7.45;;;;;;;;;;5059902;28;41047;-72
2024/01/11 10:44:16;;;;;;;11.63;8.50;;;;;;;;;;5063162;28;41169;-74
2024/01/11 10:46:46;;;;;;;11.13;7.65;;;;;;;;;;5066323;28;39906;-71
2024/01/11 10:49:16;;;;;;;11.55;8.05;;;;;;;;;;5065639;28;42573;-72
2024/01/11 10:51:45;;;;;;;12.95;9.27;;;;;;;;;;5066582;28;41848;-72
2024/01/11 10:54:14;;;;;;;12.65;7.35;;;;;;;;;;5062986;28;41628;-71
2024/01/11 10:56:43;;;;;;;11.25;7.95;;;;;;;;;;5060627;28;41423;-71
2024/01/11 10:59:11;;;;;;;11.60;7.85;;;;;;;;;;5063895;28;41676;-73
2024/01/11 11:01:42;;;;;;;11.05;7.57;;;;;;;;;;5067244;28;39758;-70
2024/01/11 11:04:11;;;;;;;11.02;7.70;;;;;;;;;;5064061;28;42170;-71
2024/01/11 11:06:39;;;;;;;13.38;8.80;;;;;;;;;;5066955;28;32311;-70
2024/01/11 11:09:08;;;;;;;11.05;7.15;;;;;;;;;;5051933;28;42191;-72
2024/01/11 11:11:36;;;;;;;14.38;7.35;;;;;;;;;;5066956;28;41848;-70
2024/01/11 11:14:04;;;;;;;9.98;6.88;;;;;;;;;;5057592;28;41128;-69
2024/01/11 11:16:32;;;;;;;13.60;8.30;;;;;;;;;;5060274;28;41830;-69
2024/01/11 11:19:00;;;;;;;10.90;7.57;;;;;;;;;;5060998;28;41700;-70
2024/01/11 11:21:29;;;;;;;10.80;7.13;;;;;;;;;;5066504;28;40488;-69
2024/01/11 11:23:57;;;;;;;19.33;8.73;;;;;;;;;;5057705;28;42696;-72
2024/01/11 11:26:26;;;;;;;11.85;6.85;;;;;;;;;;5058768;28;41709;-69
2024/01/11 11:28:54;;;;;;;11.88;6.43;;;;;;;;;;5063666;28;41414;-69
2024/01/11 11:31:37;;;;;;;9.27;6.82;;;;;;;;;;5065897;28;41509;-70
2024/01/11 11:34:05;;;;;;;12.32;7.65;;;;;;;;;;5065448;28;40381;-73
2024/01/11 11:36:35;;;;;;;8.18;5.93;;;;;;;;;;5066874;28;43229;-73
2024/01/11 11:39:03;;;;;;;12.70;8.88;;;;;;;;;;5065369;28;42860;-73
2024/01/11 11:41:31;;;;;;;12.95;6.97;;;;;;;;;;5065897;28;40323;-73
2024/01/11 11:44:02;;;;;;;10.75;5.97;;;;;;;;;;5066345;28;42153;-73
2024/01/11 11:46:31;;;;;;;13.07;7.68;;;;;;;;;;5065890;28;43389;-73
2024/01/11 11:48:59;;;;;;;12.15;6.90;;;;;;;;;;5057933;28;40819;-73
2024/01/11 11:51:28;;;;;;;11.32;7.53;;;;;;;;;;5061165;28;43182;-73
2024/01/11 11:53:57;;;;;;;11.43;7.20;;;;;;;;;;5063384;28;40362;-71
2024/01/11 11:56:25;;;;;;;12.23;5.70;;;;;;;;;;5061731;28;41875;-73
2024/01/11 11:58:54;;;;;;;11.82;5.90;;;;;;;;;;5064763;28;42190;-72
2024/01/11 12:01:23;;;;;;;10.75;7.05;;;;;;;;;;5065846;28;41130;-71
2024/01/11 12:03:51;;;;;;;12.23;7.47;;;;;;;;;;5063054;28;42630;-71
2024/01/11 12:06:22;;;;;;;13.93;7.80;;;;;;;;;;5065217;28;41969;-73
2024/01/11 12:08:50;;;;;;;11.98;6.85;;;;;;;;;;5065558;28;40410;-70
2024/01/11 12:11:22;;;;;;;10.93;7.72;;;;;;;;;;5064849;28;41693;-72
2024/01/11 12:13:50;;;;;;;11.07;6.63;;;;;;;;;;5052751;28;41053;-69
2024/01/11 12:16:18;;;;;;;9.98;6.35;;;;;;;;;;5064239;28;41542;-70
2024/01/11 12:18:46;;;;;;;9.95;5.45;;;;;;;;;;5065325;28;42182;-70
2024/01/11 12:21:14;;;;;;;13.48;5.93;;;;;;;;;;5062735;28;41967;-75
2024/01/11 12:23:43;;;;;;;16.00;8.95;;;;;;;;;;5065145;28;41199;-73
2024/01/11 12:26:12;;;;;;;8.63;5.82;;;;;;;;;;5064889;28;42182;-71
2024/01/11 12:28:44;;;;;;;14.55;8.55;;;;;;;;;;5055989;28;40156;-73
2024/01/11 12:31:12;;;;;;;14.18;7.47;;;;;;;;;;5063022;28;42455;-71
2024/01/11 12:33:41;;;;;;;15.23;7.93;;;;;;;;;;5053336;28;42172;-72
2024/01/11 12:36:10;;;;;;;10.88;7.07;;;;;;;;;;5064699;28;42143;-73
2024/01/11 12:38:39;;;;;;;14.52;6.35;;;;;;;;;;5061614;28;43063;-72
2024/01/11 12:41:08;;;;;;;14.23;7.55;;;;;;;;;;5059160;28;41192;-73
2024/01/11 12:43:36;;;;;;;10.48;7.45;;;;;;;;;;5065567;28;42447;-73
2024/01/11 12:46:05;;;;;;;10.10;5.90;;;;;;;;;;5065807;28;43695;-73
2024/01/11 12:48:33;;;;;;;11.40;8.48;;;;;;;;;;5063957;28;41337;-73
2024/01/11 12:51:02;;;;;;;12.77;7.22;;;;;;;;;;5056804;28;42322;-73
2024/01/11 12:53:45;;;;;;;12.07;7.55;;;;;;;;;;5065212;28;41839;-74
2024/01/11 12:56:15;;;;;;;13.43;8.15;;;;;;;;;;5050022;28;40858;-72
2024/01/11 12:58:46;;;;;;;10.52;6.95;;;;;;;;;;5065682;28;43246;-73
2024/01/11 13:01:15;;;;;;;17.02;7.60;;;;;;;;;;5063728;28;39699;-73
2024/01/11 13:03:45;;;;;;;11.15;6.28;;;;;;;;;;5065394;28;42635;-72
2024/01/11 13:06:13;;;;;;;14.18;9.57;;;;;;;;;;5065125;28;43074;-73
2024/01/11 13:08:42;;;;;;;17.63;7.80;;;;;;;;;;5050672;28;40217;-73
2024/01/11 13:11:13;;;;;;;10.45;6.28;;;;;;;;;;5050714;28;42612;-73
2024/01/11 13:13:41;;;;;;;15.65;8.25;;;;;;;;;;5052410;28;43198;-72
2024/01/11 13:16:14;;;;;;;12.10;7.78;;;;;;;;;;5063319;28;40541;-72
2024/01/11 13:18:43;;;;;;;12.95;8.05;;;;;;;;;;5064721;28;41877;-72
2024/01/11 13:21:12;;;;;;;11.85;8.32;;;;;;;;;;5064246;28;40402;-72
2024/01/11 13:23:40;;;;;;;11.18;7.30;;;;;;;;;;5053385;28;41727;-72
2024/01/11 13:26:08;;;;;;;11.90;7.60;;;;;;;;;;5062087;28;41529;-72
2024/01/11 13:28:36;;;;;;;9.23;5.95;;;;;;;;;;5064859;28;40400;-72
2024/01/11 13:31:04;;;;;;;10.88;7.82;;;;;;;;;;5064196;28;41320;-72
2024/01/11 13:33:33;;;;;;;12.25;7.55;;;;;;;;;;5064894;28;42839;-73
2024/01/11 13:36:02;;;;;;;13.77;9.60;;;;;;;;;;5064073;28;42367;-73
2024/01/11 13:38:30;;;;;;;9.82;6.57;;;;;;;;;;5058284;28;42580;-72
2024/01/11 13:40:58;;;;;;;10.55;7.45;;;;;;;;;;5051032;28;39827;-72
2024/01/11 13:43:26;;;;;;;12.45;6.32;;;;;;;;;;5057486;28;41102;-72
2024/01/11 13:45:55;;;;;;;11.98;7.70;;;;;;;;;;5064237;28;42790;-71
2024/01/11 13:48:23;;;;;;;16.02;8.05;;;;;;;;;;5058044;28;41417;-73
2024/01/11 13:50:51;;;;;;;13.63;6.70;;;;;;;;;;5060641;28;42807;-70
2024/01/11 13:53:21;;;;;;;11.52;7.72;;;;;;;;;;5047711;28;43045;-71
2024/01/11 13:55:49;;;;;;;14.10;8.23;;;;;;;;;;5060029;28;41397;-72
2024/01/11 13:58:17;;;;;;;15.32;7.20;;;;;;;;;;5063268;28;41547;-72
2024/01/11 14:00:45;;;;;;;14.98;8.32;;;;;;;;;;5064310;28;43227;-74
2024/01/11 14:03:13;;;;;;;18.33;7.03;;;;;;;;;;5065505;28;42564;-69
2024/01/11 14:05:41;;;;;;;12.13;7.65;;;;;;;;;;5067013;28;41891;-71
2024/01/11 14:08:09;;;;;;;15.02;8.10;;;;;;;;;;5068244;28;39775;-70
2024/01/11 14:10:39;;;;;;;14.95;7.30;;;;;;;;;;5068035;28;42468;-70
2024/01/11 14:13:07;;;;;;;15.60;7.32;;;;;;;;;;5055214;28;41868;-70
2024/01/11 14:15:35;;;;;;;14.90;7.82;;;;;;;;;;5068256;28;40391;-70
2024/01/11 14:18:03;;;;;;;18.40;7.72;;;;;;;;;;5066267;28;42970;-71
2024/01/11 14:20:33;;;;;;;11.77;7.45;;;;;;;;;;5065938;28;41627;-70
2024/01/11 14:23:01;;;;;;;14.15;8.25;;;;;;;;;;5067077;28;41193;-68
2024/01/11 14:25:30;;;;;;;14.68;8.23;;;;;;;;;;5067634;28;42657;-73
2024/01/11 14:27:59;;;;;;;19.00;9.85;;;;;;;;;;5061484;28;40125;-74
2024/01/11 14:30:27;;;;;;;15.52;10.05;;;;;;;;;;5061482;28;41519;-70
2024/01/11 14:32:55;;;;;;;13.55;7.00;;;;;;;;;;5052461;28;42632;-73
2024/01/11 14:35:23;;;;;;;14.43;9.05;;;;;;;;;;5053211;28;40460;-73
2024/01/11 14:37:52;;;;;;;13.27;9.05;;;;;;;;;;5050323;28;42217;-77
2024/01/11 14:40:20;;;;;;;12.20;7.75;;;;;;;;;;5058412;28;41713;-77
2024/01/11 14:42:51;;;;;;;10.93;7.55;;;;;;;;;;5077822;28;40461;-77